Canefield Airport

Cloudy
28oC (82oF)

Cloudy


Winds: South south westerly @ 02kts / 04km/h

Humidity: 69%

Barometric Pressure: 1013 mb

Accumulated Rainfall for February: 70.4 mm

Updated: 17:00 local time (21:00 UTC)

Douglas-Charles Airport

Partly cloudy with adjacent showers
24oC (75oF)

Partly cloudy with adjacent showers


Winds: East south easterly @ 03kts / 06km/h

Humidity: 81%

Barometric Pressure: 1015 mb

Accumulated Rainfall for February: 82.1 mm

Updated: 19:00 local time (23:00 UTC)

Satellite Imagery

Satellite Imagery
Click image for larger view. (Source: National Hurricane Center).

Aviation Routine Report (METAR)

Douglas-Charles: METAR TDPD 212300Z 11003KT 9999 SCT018 24/21 Q1015=
Canefield: METAR TDCF 212100Z 20002KT 9999 BKN016 28/22 Q1013=